Time;durP1;ratioP1;P1;durP2;ratioP2;P2;SDS_P1;SDS_P2;PMS_P1;PMS_P2;Temp;Humidity;BMP_temperature;BMP_pressure;BME280_temperature;BME280_humidity;BME280_pressure;Samples;Min_cycle;Max_cycle;Signal;HPM_P1;HPM_P2
2023/01/03 00:02:10;;;;;;;18.90;10.70;;;;;;;7.68;82.93;99075.94;421016;1292;111015;-41
2023/01/03 00:12:23;;;;;;;18.30;9.20;;;;;;;7.71;82.99;99064.52;420828;1299;108298;-40
2023/01/03 00:32:44;;;;;;;19.90;12.30;;;;;;;7.60;83.09;99073.39;420999;1298;108216;-41
2023/01/03 00:53:16;;;;;;;19.50;11.20;;;;;;;7.63;83.04;99091.56;420907;1291;110970;-39
2023/01/03 01:03:23;;;;;;;15.30;9.90;;;;;;;7.68;83.14;99102.50;420734;1290;107778;-40
2023/01/03 01:13:33;;;;;;;12.50;8.30;;;;;;;7.78;83.10;99118.79;420849;1298;98651;-40
2023/01/03 01:23:41;;;;;;;15.90;9.90;;;;;;;7.77;83.03;99130.91;420967;1296;107751;-40
2023/01/03 01:33:48;;;;;;;16.90;10.00;;;;;;;7.70;83.10;99133.23;420699;1275;98096;-41
2023/01/03 01:54:21;;;;;;;10.70;7.70;;;;;;;7.66;83.16;99136.43;420869;1291;108551;-41
2023/01/03 02:14:38;;;;;;;10.60;6.60;;;;;;;7.89;83.30;99185.82;420850;1298;107927;-40
2023/01/03 02:25:17;;;;;;;15.00;7.00;;;;;;;8.08;83.33;99192.27;420853;1292;99220;-41
2023/01/03 02:35:22;;;;;;;14.00;7.40;;;;;;;8.24;83.28;99192.25;420272;1299;565836;-43
2023/01/03 02:45:36;;;;;;;13.40;7.50;;;;;;;8.39;83.09;99200.69;421781;1274;108115;-41
2023/01/03 02:55:46;;;;;;;10.70;6.60;;;;;;;8.49;82.78;99210.35;420903;1298;99243;-40
2023/01/03 03:05:54;;;;;;;12.60;7.20;;;;;;;8.56;82.61;99212.44;420876;1295;107985;-40
2023/01/03 03:16:05;;;;;;;10.10;6.10;;;;;;;8.54;82.70;99240.65;420946;1298;99157;-41
2023/01/03 03:26:16;;;;;;;14.20;7.90;;;;;;;8.44;82.57;99259.92;420960;1295;111760;-40
2023/01/03 03:36:30;;;;;;;11.30;6.60;;;;;;;8.36;82.53;99288.27;420931;1292;107697;-40
2023/01/03 03:46:40;;;;;;;7.80;4.40;;;;;;;8.44;82.51;99306.10;420925;1281;98720;-41
2023/01/03 03:56:49;;;;;;;8.20;4.30;;;;;;;8.57;82.77;99297.55;421009;1284;107534;-41
2023/01/03 04:06:56;;;;;;;6.60;4.20;;;;;;;8.69;82.83;99309.16;420826;1294;98295;-41
2023/01/03 04:17:04;;;;;;;8.20;4.80;;;;;;;8.73;82.86;99329.55;421019;1298;111526;-41
2023/01/03 04:27:11;;;;;;;8.80;4.70;;;;;;;8.67;82.91;99337.34;420848;1298;108285;-41
2023/01/03 04:47:25;;;;;;;4.90;3.60;;;;;;;8.55;82.82;99350.88;420873;1298;106532;-41
2023/01/03 04:57:32;;;;;;;6.70;4.10;;;;;;;8.52;82.77;99360.07;420811;1291;98297;-40
2023/01/03 05:07:39;;;;;;;5.10;3.50;;;;;;;8.39;82.68;99376.48;420808;1295;112282;-41
2023/01/03 05:17:46;;;;;;;6.10;4.80;;;;;;;8.25;82.81;99379.48;420888;1298;107827;-40
2023/01/03 05:27:54;;;;;;;3.50;2.80;;;;;;;8.14;82.83;99390.90;420886;1298;99038;-41
2023/01/03 05:38:01;;;;;;;6.00;3.40;;;;;;;8.08;82.84;99401.52;420859;1298;108649;-40
2023/01/03 05:48:10;;;;;;;5.10;3.50;;;;;;;8.09;83.11;99408.95;420710;1297;99251;-40
2023/01/03 05:58:17;;;;;;;8.10;4.30;;;;;;;8.12;83.18;99417.88;420878;1299;111419;-41
2023/01/03 06:08:25;;;;;;;6.70;3.40;;;;;;;8.11;83.20;99423.91;420905;1296;106729;-41
2023/01/03 06:18:34;;;;;;;5.00;3.40;;;;;;;8.05;83.25;99433.48;420960;1291;99217;-41
2023/01/03 06:28:41;;;;;;;5.10;3.30;;;;;;;7.92;83.21;99445.74;421013;1291;108742;-40
2023/01/03 06:38:49;;;;;;;9.10;3.50;;;;;;;7.78;83.10;99464.27;420916;1298;99239;-39
2023/01/03 06:59:21;;;;;;;7.60;3.10;;;;;;;7.84;83.32;99498.00;420754;1287;108963;-39
2023/01/03 07:09:29;;;;;;;5.10;3.70;;;;;;;7.89;83.25;99520.23;420980;1298;99215;-41
2023/01/03 07:19:36;;;;;;;6.40;3.50;;;;;;;7.92;83.39;99528.42;421017;1295;108841;-40
2023/01/03 07:29:43;;;;;;;7.60;3.60;;;;;;;7.88;83.42;99533.64;420964;1298;98073;-39
2023/01/03 07:39:50;;;;;;;7.10;4.80;;;;;;;7.90;83.39;99552.04;420906;1283;111894;-41
2023/01/03 07:49:57;;;;;;;9.80;5.00;;;;;;;7.97;83.37;99564.48;420888;1299;107633;-40
2023/01/03 08:00:06;;;;;;;8.70;5.90;;;;;;;8.08;83.52;99575.42;421002;1298;99104;-40
2023/01/03 08:20:37;;;;;;;8.10;5.30;;;;;;;8.31;83.91;99582.37;420743;1291;98853;-40
2023/01/03 08:30:45;;;;;;;11.40;5.90;;;;;;;8.39;83.84;99590.35;420927;1298;110954;-39
2023/01/03 08:40:53;;;;;;;9.60;5.40;;;;;;;8.41;83.92;99589.39;420883;1292;107765;-40
2023/01/03 08:51:01;;;;;;;8.70;4.80;;;;;;;8.43;83.70;99594.71;420886;1298;99227;-39
2023/01/03 09:01:10;;;;;;;5.50;3.90;;;;;;;8.57;83.71;99617.04;420715;1290;108587;-40
2023/01/03 09:11:17;;;;;;;8.70;4.60;;;;;;;8.72;83.61;99637.90;420894;1292;98652;-40
2023/01/03 09:21:24;;;;;;;5.40;3.90;;;;;;;8.89;83.51;99642.55;420912;1292;111256;-40
2023/01/03 09:41:40;;;;;;;6.00;4.30;;;;;;;8.70;81.85;99642.02;420884;1294;99169;-40
2023/01/03 10:22:47;;;;;;;8.30;3.80;;;;;;;8.83;80.58;99653.68;420883;1291;107670;-40
2023/01/03 10:33:03;;;;;;;7.60;4.20;;;;;;;8.83;80.20;99654.54;420846;1299;99249;-40
2023/01/03 10:43:09;;;;;;;7.30;4.70;;;;;;;8.86;79.63;99649.41;420902;1298;108531;-40
2023/01/03 10:53:21;;;;;;;6.00;3.80;;;;;;;8.95;78.99;99650.15;420935;1298;99198;-41
2023/01/03 11:03:28;;;;;;;8.50;3.70;;;;;;;9.01;78.61;99644.54;421003;1291;111630;-40
2023/01/03 11:13:33;;;;;;;10.80;5.10;;;;;;;9.03;78.19;99635.55;420928;1298;107136;-41
2023/01/03 11:23:57;;;;;;;6.40;4.00;;;;;;;9.03;77.04;99636.85;420948;1299;101564;-39
2023/01/03 11:34:05;;;;;;;6.10;3.20;;;;;;;9.01;76.64;99633.70;420934;1299;108934;-40
2023/01/03 11:44:22;;;;;;;10.40;6.10;;;;;;;8.82;76.40;99635.90;420961;1292;99058;-40
2023/01/03 11:54:45;;;;;;;10.40;6.10;;;;;;;8.70;76.36;99637.07;420795;1298;112211;-40
2023/01/03 12:04:57;;;;;;;;;;;;;;;8.68;75.97;99638.15;420610;1299;108560;-40
2023/01/03 12:25:17;;;;;;;10.00;5.80;;;;;;;8.40;75.97;99642.66;420938;1304;107412;-40
2023/01/03 12:35:36;;;;;;;10.60;5.30;;;;;;;8.34;76.27;99637.66;420995;1297;99245;-41
2023/01/03 12:45:41;;;;;;;7.80;4.20;;;;;;;8.16;76.11;99647.05;421004;1303;111478;-39
2023/01/03 13:05:56;;;;;;;13.90;7.30;;;;;;;7.90;76.53;99642.42;421030;1296;99329;-40
2023/01/03 13:16:34;;;;;;;13.80;6.80;;;;;;;7.79;76.92;99639.66;420999;1291;107195;-40
2023/01/03 13:27:19;;;;;;;10.90;5.80;;;;;;;7.73;77.06;99645.20;420938;1299;99341;-40
2023/01/03 13:37:27;;;;;;;12.80;7.20;;;;;;;7.59;77.07;99649.36;420979;1299;112947;-41
2023/01/03 13:47:33;;;;;;;17.20;10.20;;;;;;;7.63;77.33;99649.40;420915;1295;106018;-40
2023/01/03 14:08:18;;;;;;;15.90;8.60;;;;;;;7.50;77.69;99655.84;420941;1299;107408;-42
2023/01/03 14:18:28;;;;;;;17.40;8.00;;;;;;;7.32;77.85;99664.36;420933;1299;99207;-40
2023/01/03 14:28:40;;;;;;;8.60;6.50;;;;;;;7.19;77.70;99667.48;421001;1298;112413;-40
2023/01/03 14:38:46;;;;;;;15.30;7.90;;;;;;;7.01;77.86;99675.00;420744;1298;301468;-40
2023/01/03 14:48:54;;;;;;;17.60;10.60;;;;;;;6.91;77.95;99679.30;420976;1299;97961;-41
2023/01/03 15:09:13;;;;;;;53.20;27.90;;;;;;;6.67;78.44;99692.90;420986;1292;99249;-39
2023/01/03 15:19:21;;;;;;;44.30;23.70;;;;;;;6.44;78.51;99705.73;420896;1287;110946;-39
2023/01/03 15:29:44;;;;;;;26.80;15.50;;;;;;;6.35;78.64;99717.10;420852;1292;107409;-40
2023/01/03 15:39:52;;;;;;;24.60;13.90;;;;;;;6.29;78.71;99720.14;420882;1300;98650;-40
2023/01/03 15:50:02;;;;;;;22.50;11.20;;;;;;;6.37;78.97;99716.32;420916;1298;112047;-40
2023/01/03 16:10:22;;;;;;;42.20;22.40;;;;;;;6.27;79.33;99744.64;420981;1291;98861;-40
2023/01/03 16:20:30;;;;;;;48.00;26.70;;;;;;;6.02;79.18;99751.52;420936;1299;107879;-40
2023/01/03 16:30:37;;;;;;;40.40;27.10;;;;;;;5.82;79.33;99754.29;420776;1295;99409;-40
2023/01/03 16:40:46;;;;;;;39.80;23.80;;;;;;;5.67;79.50;99758.09;420819;1298;112057;-40
2023/01/03 16:50:51;;;;;;;47.20;24.90;;;;;;;5.55;79.55;99761.32;420812;1291;107136;-40
2023/01/03 17:00:58;;;;;;;61.20;33.20;;;;;;;5.36;79.87;99766.00;420837;1291;98081;-40
2023/01/03 17:11:07;;;;;;;57.30;30.40;;;;;;;5.13;79.83;99782.70;420779;1295;110124;-41
2023/01/03 17:21:25;;;;;;;74.70;35.30;;;;;;;4.95;80.23;99776.30;420830;1291;99246;-40
2023/01/03 17:31:32;;;;;;;43.50;25.10;;;;;;;5.01;80.55;99777.55;420772;1298;111372;-40
2023/01/03 17:52:05;;;;;;;50.70;23.60;;;;;;;5.20;80.70;99793.86;420910;1298;98421;-40
2023/01/03 18:02:15;;;;;;;57.50;25.20;;;;;;;5.19;80.61;99792.40;420938;1298;107386;-41
2023/01/03 18:12:25;;;;;;;144.50;63.70;;;;;;;5.05;80.88;99802.45;421036;1298;99287;-41
2023/01/03 18:22:31;;;;;;;;;;;;;;;4.89;80.83;99810.45;420830;1292;111161;-40
2023/01/03 18:32:38;;;;;;;74.80;33.00;;;;;;;4.59;80.80;99816.84;420908;1291;108566;-39
2023/01/03 18:53:14;;;;;;;35.60;22.30;;;;;;;4.01;80.58;99838.08;420849;1299;108480;-40
2023/01/03 19:03:20;;;;;;;48.80;31.30;;;;;;;3.60;80.51;99838.86;420790;1298;99290;-40
2023/01/03 19:13:48;;;;;;;96.60;54.10;;;;;;;3.31;80.81;99841.10;420765;1298;113531;-40
2023/01/03 19:23:57;;;;;;;137.80;66.70;;;;;;;3.20;81.21;99835.77;420818;1298;108541;-40
2023/01/03 19:34:05;;;;;;;233.90;95.90;;;;;;;2.93;80.91;99832.33;420849;1298;98042;-40
2023/01/03 19:44:11;;;;;;;235.00;108.60;;;;;;;2.49;80.91;99842.92;420929;1299;107533;-41
2023/01/03 19:54:19;;;;;;;243.40;108.20;;;;;;;2.18;81.31;99835.11;420811;1295;97963;-40
2023/01/03 20:04:26;;;;;;;168.70;98.50;;;;;;;1.96;81.35;99846.41;420848;1298;111538;-39
2023/01/03 20:14:33;;;;;;;176.90;98.50;;;;;;;1.98;81.82;99857.16;420874;1283;108104;-42
2023/01/03 20:24:41;;;;;;;168.80;86.50;;;;;;;2.18;82.07;99860.48;420836;1298;98891;-39
2023/01/03 20:34:48;;;;;;;117.70;63.90;;;;;;;2.28;82.31;99859.52;420900;1298;106630;-40
2023/01/03 20:44:55;;;;;;;101.00;57.40;;;;;;;2.25;82.15;99860.14;420828;1289;99266;-43
2023/01/03 20:55:02;;;;;;;76.90;46.40;;;;;;;2.22;82.37;99858.02;420919;1291;112214;-39
2023/01/03 21:05:10;;;;;;;83.90;44.40;;;;;;;2.29;82.57;99847.13;420904;1290;107992;-40
2023/01/03 21:15:17;;;;;;;100.70;51.40;;;;;;;2.31;82.61;99850.16;421025;1292;98068;-41
2023/01/03 21:25:28;;;;;;;86.20;44.10;;;;;;;2.13;82.63;99849.52;420906;1286;108806;-40
2023/01/03 21:35:39;;;;;;;64.00;33.70;;;;;;;1.96;82.91;99852.70;421043;1298;99276;-40
2023/01/03 21:45:49;;;;;;;58.80;37.10;;;;;;;2.00;83.12;99867.71;421034;1290;111401;-41
2023/01/03 21:55:55;;;;;;;;;;;;;;;2.03;83.00;99856.90;420922;1298;107695;-40
2023/01/03 22:06:09;;;;;;;77.90;41.90;;;;;;;1.95;82.99;99862.72;420799;1283;99256;-40
2023/01/03 22:16:17;;;;;;;55.30;33.10;;;;;;;1.97;83.17;99871.16;421009;1298;107572;-40
2023/01/03 22:26:25;;;;;;;55.40;29.70;;;;;;;2.14;83.36;99876.70;420977;1298;98417;-40
2023/01/03 22:36:40;;;;;;;62.00;36.60;;;;;;;2.14;83.40;99873.55;420929;1295;112003;-40
2023/01/03 22:46:47;;;;;;;60.10;34.50;;;;;;;2.05;83.60;99876.17;420981;1292;107910;-39
2023/01/03 22:56:54;;;;;;;59.70;33.50;;;;;;;2.01;83.84;99880.17;421077;1298;99035;-40
2023/01/03 23:37:39;;;;;;;39.30;25.80;;;;;;;2.32;83.86;99856.39;420964;1292;107902;-40
2023/01/03 23:47:46;;;;;;;37.70;23.40;;;;;;;2.30;83.87;99855.66;420785;1291;99266;-41
2023/01/03 23:57:54;;;;;;;52.00;28.10;;;;;;;2.28;83.95;99849.08;420823;1298;114222;-40
